sensor_id;sensor_type;location;lat;lon;timestamp;pressure;altitude;pressure_sealevel;temperature;humidity
13434;BME280;6789;47.678;9.158;2023-12-04T00:03:03;53505.88;;;-138.23;80.10
13434;BME280;6789;47.678;9.158;2023-12-04T00:07:55;53511.91;;;-138.23;80.38
13434;BME280;6789;47.678;9.158;2023-12-04T00:12:47;53554.09;;;-138.23;79.41
13434;BME280;6789;47.678;9.158;2023-12-04T00:17:39;53489.81;;;-138.23;78.68
13434;BME280;6789;47.678;9.158;2023-12-04T00:22:32;53471.75;;;-138.23;78.63
13434;BME280;6789;47.678;9.158;2023-12-04T00:27:24;53501.88;;;-138.23;78.79
13434;BME280;6789;47.678;9.158;2023-12-04T00:32:18;53517.94;;;-138.23;79.29
13434;BME280;6789;47.678;9.158;2023-12-04T00:37:10;53554.09;;;-138.23;79.21
13434;BME280;6789;47.678;9.158;2023-12-04T00:42:02;53527.97;;;-138.23;80.43
13434;BME280;6789;47.678;9.158;2023-12-04T00:46:54;53552.06;;;-138.23;80.83
13434;BME280;6789;47.678;9.158;2023-12-04T00:51:45;53540.03;;;-138.23;82.06
13434;BME280;6789;47.678;9.158;2023-12-04T00:56:41;53554.09;;;-138.23;82.84
13434;BME280;6789;47.678;9.158;2023-12-04T01:01:33;53538.00;;;-138.23;83.06
13434;BME280;6789;47.678;9.158;2023-12-04T01:06:25;53532.00;;;-138.23;82.51
13434;BME280;6789;47.678;9.158;2023-12-04T01:11:17;53529.97;;;-138.23;82.97
13434;BME280;6789;47.678;9.158;2023-12-04T01:16:11;53560.09;;;-138.23;84.24
13434;BME280;6789;47.678;9.158;2023-12-04T01:21:03;53532.00;;;-138.23;85.56
13434;BME280;6789;47.678;9.158;2023-12-04T01:25:55;53574.16;;;-138.23;85.02
13434;BME280;6789;47.678;9.158;2023-12-04T01:30:47;53509.91;;;-138.23;84.80
13434;BME280;6789;47.678;9.158;2023-12-04T01:35:39;53521.94;;;-138.23;85.05
13434;BME280;6789;47.678;9.158;2023-12-04T01:40:31;53507.88;;;-138.23;85.07
13434;BME280;6789;47.678;9.158;2023-12-04T01:45:23;53550.06;;;-138.23;85.52
13434;BME280;6789;47.678;9.158;2023-12-04T01:50:16;53529.97;;;-138.23;84.87
13434;BME280;6789;47.678;9.158;2023-12-04T01:55:09;53534.00;;;-138.23;84.91
13434;BME280;6789;47.678;9.158;2023-12-04T02:00:02;53523.97;;;-138.23;85.07
13434;BME280;6789;47.678;9.158;2023-12-04T02:04:56;53540.03;;;-138.23;85.59
13434;BME280;6789;47.678;9.158;2023-12-04T02:09:49;53525.97;;;-138.23;85.84
13434;BME280;6789;47.678;9.158;2023-12-04T02:14:41;53580.19;;;-138.23;84.75
13434;BME280;6789;47.678;9.158;2023-12-04T02:19:34;53499.84;;;-138.23;84.46
13434;BME280;6789;47.678;9.158;2023-12-04T02:24:26;53532.00;;;-138.23;82.99
13434;BME280;6789;47.678;9.158;2023-12-04T02:29:35;53552.06;;;-138.23;83.63
13434;BME280;6789;47.678;9.158;2023-12-04T02:34:32;53548.06;;;-138.23;84.16
13434;BME280;6789;47.678;9.158;2023-12-04T02:39:25;53534.00;;;-138.23;82.91
13434;BME280;6789;47.678;9.158;2023-12-04T02:44:17;53525.97;;;-138.23;83.25
13434;BME280;6789;47.678;9.158;2023-12-04T02:49:09;53529.97;;;-138.23;83.90
13434;BME280;6789;47.678;9.158;2023-12-04T02:54:01;53542.03;;;-138.23;83.82
13434;BME280;6789;47.678;9.158;2023-12-04T02:58:53;53548.06;;;-138.23;83.82
13434;BME280;6789;47.678;9.158;2023-12-04T03:03:45;53529.97;;;-138.23;84.67
13434;BME280;6789;47.678;9.158;2023-12-04T03:08:36;53566.13;;;-138.23;84.10
13434;BME280;6789;47.678;9.158;2023-12-04T03:13:28;53525.97;;;-138.23;82.53
13434;BME280;6789;47.678;9.158;2023-12-04T03:18:21;53556.09;;;-138.23;83.27
13434;BME280;6789;47.678;9.158;2023-12-04T03:23:14;53529.97;;;-138.23;83.42
13434;BME280;6789;47.678;9.158;2023-12-04T03:28:06;53538.00;;;-138.23;83.74
13434;BME280;6789;47.678;9.158;2023-12-04T03:32:58;53525.97;;;-138.23;83.26
13434;BME280;6789;47.678;9.158;2023-12-04T03:37:50;53534.00;;;-138.23;83.06
13434;BME280;6789;47.678;9.158;2023-12-04T03:42:42;53536.00;;;-138.23;83.00
13434;BME280;6789;47.678;9.158;2023-12-04T03:47:33;53540.03;;;-138.23;83.41
13434;BME280;6789;47.678;9.158;2023-12-04T03:52:25;53521.94;;;-138.23;83.12
13434;BME280;6789;47.678;9.158;2023-12-04T03:57:18;53517.94;;;-138.23;82.95
13434;BME280;6789;47.678;9.158;2023-12-04T04:02:10;53529.97;;;-138.23;83.54
13434;BME280;6789;47.678;9.158;2023-12-04T04:07:01;53532.00;;;-138.23;83.83
13434;BME280;6789;47.678;9.158;2023-12-04T04:11:53;53542.03;;;-138.23;83.03
13434;BME280;6789;47.678;9.158;2023-12-04T04:16:45;53519.94;;;-138.23;82.49
13434;BME280;6789;47.678;9.158;2023-12-04T04:21:40;53532.00;;;-138.23;82.18
13434;BME280;6789;47.678;9.158;2023-12-04T04:26:32;53542.03;;;-138.23;82.77
13434;BME280;6789;47.678;9.158;2023-12-04T04:31:25;53529.97;;;-138.23;82.52
13434;BME280;6789;47.678;9.158;2023-12-04T04:36:16;53550.06;;;-138.23;81.99
13434;BME280;6789;47.678;9.158;2023-12-04T04:41:14;53546.03;;;-138.23;81.40
13434;BME280;6789;47.678;9.158;2023-12-04T04:46:06;53453.66;;;-138.23;81.07
13434;BME280;6789;47.678;9.158;2023-12-04T04:50:58;53461.69;;;-138.23;79.74
13434;BME280;6789;47.678;9.158;2023-12-04T04:55:50;53491.81;;;-138.23;80.03
13434;BME280;6789;47.678;9.158;2023-12-04T05:00:43;53509.91;;;-138.23;79.76
13434;BME280;6789;47.678;9.158;2023-12-04T05:05:49;53515.94;;;-138.23;79.09
13434;BME280;6789;47.678;9.158;2023-12-04T05:10:40;53511.91;;;-138.23;78.61
13434;BME280;6789;47.678;9.158;2023-12-04T05:15:32;53521.94;;;-138.23;77.73
13434;BME280;6789;47.678;9.158;2023-12-04T05:20:24;53493.84;;;-138.23;77.64
13434;BME280;6789;47.678;9.158;2023-12-04T05:25:16;53542.03;;;-138.23;78.15
13434;BME280;6789;47.678;9.158;2023-12-04T05:30:08;53521.94;;;-138.23;78.07
13434;BME280;6789;47.678;9.158;2023-12-04T05:35:00;53497.84;;;-138.23;77.36
13434;BME280;6789;47.678;9.158;2023-12-04T05:39:52;53540.03;;;-138.23;77.23
13434;BME280;6789;47.678;9.158;2023-12-04T05:44:43;53525.97;;;-138.23;78.08
13434;BME280;6789;47.678;9.158;2023-12-04T05:49:35;53517.94;;;-138.23;78.30
13434;BME280;6789;47.678;9.158;2023-12-04T05:54:27;53505.88;;;-138.23;78.39
13434;BME280;6789;47.678;9.158;2023-12-04T05:59:19;53527.97;;;-138.23;79.02
13434;BME280;6789;47.678;9.158;2023-12-04T06:04:11;53501.88;;;-138.23;79.21
13434;BME280;6789;47.678;9.158;2023-12-04T06:09:02;53540.03;;;-138.23;79.58
13434;BME280;6789;47.678;9.158;2023-12-04T06:13:54;53542.03;;;-138.23;80.14
13434;BME280;6789;47.678;9.158;2023-12-04T06:18:46;53481.78;;;-138.23;79.48
13434;BME280;6789;47.678;9.158;2023-12-04T06:23:38;53497.84;;;-138.23;79.01
13434;BME280;6789;47.678;9.158;2023-12-04T06:28:30;53507.88;;;-138.23;79.67
13434;BME280;6789;47.678;9.158;2023-12-04T06:33:22;53517.94;;;-138.23;79.73
13434;BME280;6789;47.678;9.158;2023-12-04T06:38:15;53525.97;;;-138.23;79.16
13434;BME280;6789;47.678;9.158;2023-12-04T06:43:10;53517.94;;;-138.23;79.82
13434;BME280;6789;47.678;9.158;2023-12-04T06:48:02;53546.03;;;-138.23;80.02
13434;BME280;6789;47.678;9.158;2023-12-04T06:52:54;53515.94;;;-138.23;80.40
13434;BME280;6789;47.678;9.158;2023-12-04T06:57:46;53527.97;;;-138.23;80.92
13434;BME280;6789;47.678;9.158;2023-12-04T07:02:38;53509.91;;;-138.23;79.80
13434;BME280;6789;47.678;9.158;2023-12-04T07:07:30;53538.00;;;-138.23;80.23
13434;BME280;6789;47.678;9.158;2023-12-04T07:12:22;53487.81;;;-138.23;80.99
13434;BME280;6789;47.678;9.158;2023-12-04T07:17:13;53501.88;;;-138.23;80.38
13434;BME280;6789;47.678;9.158;2023-12-04T07:22:05;53515.94;;;-138.23;80.00
13434;BME280;6789;47.678;9.158;2023-12-04T07:26:57;53509.91;;;-138.23;80.48
13434;BME280;6789;47.678;9.158;2023-12-04T07:31:49;53503.88;;;-138.23;80.29
13434;BME280;6789;47.678;9.158;2023-12-04T07:36:40;53521.94;;;-138.23;79.99
13434;BME280;6789;47.678;9.158;2023-12-04T07:41:32;53509.91;;;-138.23;79.64
13434;BME280;6789;47.678;9.158;2023-12-04T07:46:24;53525.97;;;-138.23;79.59
13434;BME280;6789;47.678;9.158;2023-12-04T07:51:20;53505.88;;;-138.23;80.10
13434;BME280;6789;47.678;9.158;2023-12-04T07:56:12;53519.94;;;-138.23;80.22
13434;BME280;6789;47.678;9.158;2023-12-04T08:01:04;53501.88;;;-138.23;80.74
13434;BME280;6789;47.678;9.158;2023-12-04T08:05:57;53542.03;;;-138.23;80.95
13434;BME280;6789;47.678;9.158;2023-12-04T08:10:50;53542.03;;;-138.23;81.02
13434;BME280;6789;47.678;9.158;2023-12-04T08:15:43;53527.97;;;-138.23;80.11
13434;BME280;6789;47.678;9.158;2023-12-04T08:20:35;53501.88;;;-138.23;79.59
13434;BME280;6789;47.678;9.158;2023-12-04T08:25:31;53521.94;;;-138.23;78.83
13434;BME280;6789;47.678;9.158;2023-12-04T08:30:23;53534.00;;;-138.23;78.54
13434;BME280;6789;47.678;9.158;2023-12-04T08:35:15;53538.00;;;-138.23;78.68
13434;BME280;6789;47.678;9.158;2023-12-04T08:40:08;53513.91;;;-138.23;78.61
13434;BME280;6789;47.678;9.158;2023-12-04T08:45:00;53529.97;;;-138.23;78.88
13434;BME280;6789;47.678;9.158;2023-12-04T08:49:51;53570.16;;;-138.23;79.48
13434;BME280;6789;47.678;9.158;2023-12-04T08:54:43;53525.97;;;-138.23;77.39
13434;BME280;6789;47.678;9.158;2023-12-04T08:59:35;53519.94;;;-138.23;77.44
13434;BME280;6789;47.678;9.158;2023-12-04T09:04:27;53525.97;;;-138.23;76.94
13434;BME280;6789;47.678;9.158;2023-12-04T09:09:19;53497.84;;;-138.23;74.73
13434;BME280;6789;47.678;9.158;2023-12-04T09:14:11;53493.84;;;-138.23;75.61
13434;BME280;6789;47.678;9.158;2023-12-04T09:19:03;53503.88;;;-138.23;76.08
13434;BME280;6789;47.678;9.158;2023-12-04T09:23:55;53515.94;;;-138.23;76.01
13434;BME280;6789;47.678;9.158;2023-12-04T09:28:47;53485.81;;;-138.23;75.03
13434;BME280;6789;47.678;9.158;2023-12-04T09:33:40;53491.81;;;-138.23;74.98
13434;BME280;6789;47.678;9.158;2023-12-04T09:38:33;53538.00;;;-138.23;74.15
13434;BME280;6789;47.678;9.158;2023-12-04T09:43:26;53503.88;;;-138.23;74.18
13434;BME280;6789;47.678;9.158;2023-12-04T09:48:25;53517.94;;;-138.23;73.19
13434;BME280;6789;47.678;9.158;2023-12-04T09:53:17;53477.78;;;-138.23;73.27
13434;BME280;6789;47.678;9.158;2023-12-04T09:58:14;53467.72;;;-138.23;72.49
13434;BME280;6789;47.678;9.158;2023-12-04T10:03:06;53473.75;;;-138.23;72.43
13434;BME280;6789;47.678;9.158;2023-12-04T10:07:58;53473.75;;;-138.23;72.75
13434;BME280;6789;47.678;9.158;2023-12-04T10:12:51;53493.84;;;-138.23;72.36
13434;BME280;6789;47.678;9.158;2023-12-04T10:17:43;53529.97;;;-138.23;73.17
13434;BME280;6789;47.678;9.158;2023-12-04T10:22:35;53497.84;;;-138.23;73.55
13434;BME280;6789;47.678;9.158;2023-12-04T10:27:27;53485.81;;;-138.23;73.17
13434;BME280;6789;47.678;9.158;2023-12-04T10:32:19;53509.91;;;-138.23;73.00
13434;BME280;6789;47.678;9.158;2023-12-04T10:37:13;53495.84;;;-138.23;72.75
13434;BME280;6789;47.678;9.158;2023-12-04T10:42:05;53481.78;;;-138.23;72.55
13434;BME280;6789;47.678;9.158;2023-12-04T10:47:00;53501.88;;;-138.23;72.95
13434;BME280;6789;47.678;9.158;2023-12-04T10:51:55;53515.94;;;-138.23;71.75
13434;BME280;6789;47.678;9.158;2023-12-04T10:56:51;53519.94;;;-138.23;70.05
13434;BME280;6789;47.678;9.158;2023-12-04T11:01:46;53503.88;;;-138.23;69.27
13434;BME280;6789;47.678;9.158;2023-12-04T11:06:40;53501.88;;;-138.23;68.66
13434;BME280;6789;47.678;9.158;2023-12-04T11:11:38;53481.78;;;-138.23;68.26
13434;BME280;6789;47.678;9.158;2023-12-04T11:16:54;53509.91;;;-138.23;68.14
13434;BME280;6789;47.678;9.158;2023-12-04T11:21:50;53477.78;;;-138.23;67.89
13434;BME280;6789;47.678;9.158;2023-12-04T11:26:42;53453.66;;;-138.23;67.89
13434;BME280;6789;47.678;9.158;2023-12-04T11:31:36;53437.59;;;-138.23;67.54
13434;BME280;6789;47.678;9.158;2023-12-04T11:36:28;53479.78;;;-138.23;67.33
13434;BME280;6789;47.678;9.158;2023-12-04T11:41:24;53491.81;;;-138.23;67.46
13434;BME280;6789;47.678;9.158;2023-12-04T11:46:24;53485.81;;;-138.23;65.74
13434;BME280;6789;47.678;9.158;2023-12-04T11:56:30;53517.94;;;-138.23;64.08
13434;BME280;6789;47.678;9.158;2023-12-04T12:01:22;53451.66;;;-138.23;63.13
13434;BME280;6789;47.678;9.158;2023-12-04T12:06:14;53459.69;;;-138.23;63.75
13434;BME280;6789;47.678;9.158;2023-12-04T12:11:07;53425.56;;;-138.23;63.90
13434;BME280;6789;47.678;9.158;2023-12-04T12:15:59;53453.66;;;-138.23;63.48
13434;BME280;6789;47.678;9.158;2023-12-04T12:20:51;53437.59;;;-138.23;64.63
13434;BME280;6789;47.678;9.158;2023-12-04T12:25:42;53497.84;;;-138.23;67.27
13434;BME280;6789;47.678;9.158;2023-12-04T12:30:34;53465.72;;;-138.23;66.46
13434;BME280;6789;47.678;9.158;2023-12-04T12:35:26;53497.84;;;-138.23;65.80
13434;BME280;6789;47.678;9.158;2023-12-04T12:40:21;53475.75;;;-138.23;65.04
13434;BME280;6789;47.678;9.158;2023-12-04T12:45:13;53437.59;;;-138.23;64.15
13434;BME280;6789;47.678;9.158;2023-12-04T12:50:08;53463.72;;;-138.23;64.20
13434;BME280;6789;47.678;9.158;2023-12-04T12:55:02;53483.78;;;-138.23;64.18
13434;BME280;6789;47.678;9.158;2023-12-04T12:59:54;53461.69;;;-138.23;64.29
13434;BME280;6789;47.678;9.158;2023-12-04T13:04:50;53437.59;;;-138.23;64.01
13434;BME280;6789;47.678;9.158;2023-12-04T13:09:42;53445.63;;;-138.23;64.49
13434;BME280;6789;47.678;9.158;2023-12-04T13:14:35;53505.88;;;-138.23;64.96
13434;BME280;6789;47.678;9.158;2023-12-04T13:19:28;53501.88;;;-138.23;65.30
13434;BME280;6789;47.678;9.158;2023-12-04T13:24:19;53517.94;;;-138.23;65.48
13434;BME280;6789;47.678;9.158;2023-12-04T13:29:13;53469.75;;;-138.23;66.40
13434;BME280;6789;47.678;9.158;2023-12-04T13:34:10;53503.88;;;-138.23;67.21
13434;BME280;6789;47.678;9.158;2023-12-04T13:39:03;53453.66;;;-138.23;68.38
13434;BME280;6789;47.678;9.158;2023-12-04T13:44:07;53483.78;;;-138.23;68.54
13434;BME280;6789;47.678;9.158;2023-12-04T13:48:59;53507.88;;;-138.23;68.68
13434;BME280;6789;47.678;9.158;2023-12-04T13:53:51;53463.72;;;-138.23;69.28
13434;BME280;6789;47.678;9.158;2023-12-04T13:58:52;53451.66;;;-138.23;70.78
13434;BME280;6789;47.678;9.158;2023-12-04T14:03:51;53451.66;;;-138.23;70.31
13434;BME280;6789;47.678;9.158;2023-12-04T14:08:44;53473.75;;;-138.23;71.67
13434;BME280;6789;47.678;9.158;2023-12-04T14:13:37;53483.78;;;-138.23;71.34
13434;BME280;6789;47.678;9.158;2023-12-04T14:18:31;53497.84;;;-138.23;71.50
13434;BME280;6789;47.678;9.158;2023-12-04T14:23:23;53489.81;;;-138.23;72.26
13434;BME280;6789;47.678;9.158;2023-12-04T14:28:15;53493.84;;;-138.23;72.56
13434;BME280;6789;47.678;9.158;2023-12-04T14:33:16;53483.78;;;-138.23;73.20
13434;BME280;6789;47.678;9.158;2023-12-04T14:38:08;53469.75;;;-138.23;73.08
13434;BME280;6789;47.678;9.158;2023-12-04T14:43:00;53513.91;;;-138.23;72.73
13434;BME280;6789;47.678;9.158;2023-12-04T14:47:52;53467.72;;;-138.23;73.24
13434;BME280;6789;47.678;9.158;2023-12-04T14:52:47;53505.88;;;-138.23;73.99
13434;BME280;6789;47.678;9.158;2023-12-04T14:57:42;53499.84;;;-138.23;73.99
13434;BME280;6789;47.678;9.158;2023-12-04T15:02:55;53513.91;;;-138.23;74.34
13434;BME280;6789;47.678;9.158;2023-12-04T15:08:06;53497.84;;;-138.23;74.26
13434;BME280;6789;47.678;9.158;2023-12-04T15:13:00;53487.81;;;-138.23;74.48
13434;BME280;6789;47.678;9.158;2023-12-04T15:17:52;53461.69;;;-138.23;74.58
13434;BME280;6789;47.678;9.158;2023-12-04T15:22:48;53485.81;;;-138.23;75.62
13434;BME280;6789;47.678;9.158;2023-12-04T15:27:39;53550.06;;;-138.23;76.55
13434;BME280;6789;47.678;9.158;2023-12-04T15:32:32;53511.91;;;-138.23;77.10
13434;BME280;6789;47.678;9.158;2023-12-04T15:37:24;53485.81;;;-138.23;77.27
13434;BME280;6789;47.678;9.158;2023-12-04T15:42:15;53523.97;;;-138.23;77.80
13434;BME280;6789;47.678;9.158;2023-12-04T15:47:07;53489.81;;;-138.23;76.60
13434;BME280;6789;47.678;9.158;2023-12-04T15:51:59;53485.81;;;-138.23;76.88
13434;BME280;6789;47.678;9.158;2023-12-04T15:56:51;53471.75;;;-138.23;77.07
13434;BME280;6789;47.678;9.158;2023-12-04T16:01:42;53471.75;;;-138.23;76.49
13434;BME280;6789;47.678;9.158;2023-12-04T16:06:34;53511.91;;;-138.23;77.75
13434;BME280;6789;47.678;9.158;2023-12-04T16:11:28;53503.88;;;-138.23;77.73
13434;BME280;6789;47.678;9.158;2023-12-04T16:16:20;53509.91;;;-138.23;78.22
13434;BME280;6789;47.678;9.158;2023-12-04T16:21:13;53509.91;;;-138.23;78.15
13434;BME280;6789;47.678;9.158;2023-12-04T16:26:06;53477.78;;;-138.23;78.46
13434;BME280;6789;47.678;9.158;2023-12-04T16:30:58;53493.84;;;-138.23;78.43
13434;BME280;6789;47.678;9.158;2023-12-04T16:35:50;53532.00;;;-138.23;78.71
13434;BME280;6789;47.678;9.158;2023-12-04T16:40:42;53481.78;;;-138.23;79.26
13434;BME280;6789;47.678;9.158;2023-12-04T16:45:33;53463.72;;;-138.23;79.06
13434;BME280;6789;47.678;9.158;2023-12-04T16:50:25;53499.84;;;-138.23;79.02
13434;BME280;6789;47.678;9.158;2023-12-04T16:55:18;53505.88;;;-138.23;78.96
13434;BME280;6789;47.678;9.158;2023-12-04T17:00:11;53517.94;;;-138.23;78.76
13434;BME280;6789;47.678;9.158;2023-12-04T17:05:03;53495.84;;;-138.23;79.41
13434;BME280;6789;47.678;9.158;2023-12-04T17:09:57;53471.75;;;-138.23;78.98
13434;BME280;6789;47.678;9.158;2023-12-04T17:14:48;53489.81;;;-138.23;78.61
13434;BME280;6789;47.678;9.158;2023-12-04T17:19:40;53473.75;;;-138.23;78.58
13434;BME280;6789;47.678;9.158;2023-12-04T17:24:32;53479.78;;;-138.23;78.80
13434;BME280;6789;47.678;9.158;2023-12-04T17:29:24;53487.81;;;-138.23;78.93
13434;BME280;6789;47.678;9.158;2023-12-04T17:34:18;53491.81;;;-138.23;79.15
13434;BME280;6789;47.678;9.158;2023-12-04T17:39:11;53475.75;;;-138.23;78.32
13434;BME280;6789;47.678;9.158;2023-12-04T17:44:08;53509.91;;;-138.23;78.73
13434;BME280;6789;47.678;9.158;2023-12-04T17:49:00;53505.88;;;-138.23;79.14
13434;BME280;6789;47.678;9.158;2023-12-04T17:53:52;53493.84;;;-138.23;78.46
13434;BME280;6789;47.678;9.158;2023-12-04T17:58:43;53489.81;;;-138.23;78.71
13434;BME280;6789;47.678;9.158;2023-12-04T18:03:35;53481.78;;;-138.23;78.60
13434;BME280;6789;47.678;9.158;2023-12-04T18:08:28;53505.88;;;-138.23;77.95
13434;BME280;6789;47.678;9.158;2023-12-04T18:13:20;53495.84;;;-138.23;78.12
13434;BME280;6789;47.678;9.158;2023-12-04T18:18:12;53477.78;;;-138.23;78.00
13434;BME280;6789;47.678;9.158;2023-12-04T18:23:04;53485.81;;;-138.23;78.46
13434;BME280;6789;47.678;9.158;2023-12-04T18:27:56;53499.84;;;-138.23;77.98
13434;BME280;6789;47.678;9.158;2023-12-04T18:32:51;53467.72;;;-138.23;78.24
13434;BME280;6789;47.678;9.158;2023-12-04T18:38:05;53493.84;;;-138.23;79.09
13434;BME280;6789;47.678;9.158;2023-12-04T18:42:57;53479.78;;;-138.23;79.74
13434;BME280;6789;47.678;9.158;2023-12-04T18:48:00;53505.88;;;-138.23;80.17
13434;BME280;6789;47.678;9.158;2023-12-04T18:52:53;53471.75;;;-138.23;80.37
13434;BME280;6789;47.678;9.158;2023-12-04T18:57:45;53503.88;;;-138.23;80.46
13434;BME280;6789;47.678;9.158;2023-12-04T19:02:37;53505.88;;;-138.23;80.84
13434;BME280;6789;47.678;9.158;2023-12-04T19:07:28;53509.91;;;-138.23;81.89
13434;BME280;6789;47.678;9.158;2023-12-04T19:12:20;53477.78;;;-138.23;81.46
13434;BME280;6789;47.678;9.158;2023-12-04T19:17:12;53475.75;;;-138.23;80.55
13434;BME280;6789;47.678;9.158;2023-12-04T19:22:04;53507.88;;;-138.23;81.73
13434;BME280;6789;47.678;9.158;2023-12-04T19:26:56;53489.81;;;-138.23;81.96
13434;BME280;6789;47.678;9.158;2023-12-04T19:31:48;53513.91;;;-138.23;83.10
13434;BME280;6789;47.678;9.158;2023-12-04T19:36:40;53523.97;;;-138.23;83.34
13434;BME280;6789;47.678;9.158;2023-12-04T19:41:32;53523.97;;;-138.23;82.40
13434;BME280;6789;47.678;9.158;2023-12-04T19:46:24;53515.94;;;-138.23;82.91
13434;BME280;6789;47.678;9.158;2023-12-04T19:51:15;53513.91;;;-138.23;83.78
13434;BME280;6789;47.678;9.158;2023-12-04T19:56:10;53515.94;;;-138.23;84.40
13434;BME280;6789;47.678;9.158;2023-12-04T20:01:03;53529.97;;;-138.23;82.91
13434;BME280;6789;47.678;9.158;2023-12-04T20:05:54;53534.00;;;-138.23;83.01
13434;BME280;6789;47.678;9.158;2023-12-04T20:10:47;53525.97;;;-138.23;83.69
13434;BME280;6789;47.678;9.158;2023-12-04T20:15:46;53487.81;;;-138.23;83.85
13434;BME280;6789;47.678;9.158;2023-12-04T20:20:38;53497.84;;;-138.23;84.85
13434;BME280;6789;47.678;9.158;2023-12-04T20:25:30;53529.97;;;-138.23;85.58
13434;BME280;6789;47.678;9.158;2023-12-04T20:30:22;53487.81;;;-138.23;86.45
13434;BME280;6789;47.678;9.158;2023-12-04T20:35:14;53505.88;;;-138.23;87.21
13434;BME280;6789;47.678;9.158;2023-12-04T20:40:06;53513.91;;;-138.23;86.47
13434;BME280;6789;47.678;9.158;2023-12-04T20:44:59;53481.78;;;-138.23;86.83
13434;BME280;6789;47.678;9.158;2023-12-04T20:49:51;53511.91;;;-138.23;87.13
13434;BME280;6789;47.678;9.158;2023-12-04T20:54:43;53501.88;;;-138.23;89.18
13434;BME280;6789;47.678;9.158;2023-12-04T20:59:35;53485.81;;;-138.23;90.02
13434;BME280;6789;47.678;9.158;2023-12-04T21:04:26;53544.03;;;-138.23;88.98
13434;BME280;6789;47.678;9.158;2023-12-04T21:09:18;53513.91;;;-138.23;89.16
13434;BME280;6789;47.678;9.158;2023-12-04T21:14:10;53495.84;;;-138.23;88.97
13434;BME280;6789;47.678;9.158;2023-12-04T21:19:02;53501.88;;;-138.23;87.21
13434;BME280;6789;47.678;9.158;2023-12-04T21:23:53;53475.75;;;-138.23;86.71
13434;BME280;6789;47.678;9.158;2023-12-04T21:28:46;53509.91;;;-138.23;87.15
13434;BME280;6789;47.678;9.158;2023-12-04T21:33:38;53473.75;;;-138.23;87.38
13434;BME280;6789;47.678;9.158;2023-12-04T21:38:29;53501.88;;;-138.23;87.68
13434;BME280;6789;47.678;9.158;2023-12-04T21:43:21;53477.78;;;-138.23;88.98
13434;BME280;6789;47.678;9.158;2023-12-04T21:48:13;53449.66;;;-138.23;88.16
13434;BME280;6789;47.678;9.158;2023-12-04T21:53:05;53485.81;;;-138.23;88.65
13434;BME280;6789;47.678;9.158;2023-12-04T21:57:57;53487.81;;;-138.23;86.19
13434;BME280;6789;47.678;9.158;2023-12-04T22:02:49;53525.97;;;-138.23;85.56
13434;BME280;6789;47.678;9.158;2023-12-04T22:07:41;53495.84;;;-138.23;86.20
13434;BME280;6789;47.678;9.158;2023-12-04T22:12:32;53491.81;;;-138.23;84.64
13434;BME280;6789;47.678;9.158;2023-12-04T22:17:24;53491.81;;;-138.23;83.28
13434;BME280;6789;47.678;9.158;2023-12-04T22:22:16;53489.81;;;-138.23;83.77
13434;BME280;6789;47.678;9.158;2023-12-04T22:27:08;53481.78;;;-138.23;84.44
13434;BME280;6789;47.678;9.158;2023-12-04T22:31:59;53534.00;;;-138.23;85.32
13434;BME280;6789;47.678;9.158;2023-12-04T22:36:52;53489.81;;;-138.23;85.29
13434;BME280;6789;47.678;9.158;2023-12-04T22:41:44;53529.97;;;-138.23;85.87
13434;BME280;6789;47.678;9.158;2023-12-04T22:46:36;53517.94;;;-138.23;85.15
13434;BME280;6789;47.678;9.158;2023-12-04T22:51:28;53513.91;;;-138.23;85.86
13434;BME280;6789;47.678;9.158;2023-12-04T22:56:21;53473.75;;;-138.23;85.35
13434;BME280;6789;47.678;9.158;2023-12-04T23:01:14;53489.81;;;-138.23;85.98
13434;BME280;6789;47.678;9.158;2023-12-04T23:06:08;53515.94;;;-138.23;86.18
13434;BME280;6789;47.678;9.158;2023-12-04T23:16:21;53507.88;;;-138.23;87.60
13434;BME280;6789;47.678;9.158;2023-12-04T23:21:13;53491.81;;;-138.23;87.39
13434;BME280;6789;47.678;9.158;2023-12-04T23:26:05;53507.88;;;-138.23;87.04
13434;BME280;6789;47.678;9.158;2023-12-04T23:30:57;53503.88;;;-138.23;86.53
13434;BME280;6789;47.678;9.158;2023-12-04T23:35:50;53481.78;;;-138.23;86.46
13434;BME280;6789;47.678;9.158;2023-12-04T23:40:43;53473.75;;;-138.23;85.95
13434;BME280;6789;47.678;9.158;2023-12-04T23:45:35;53513.91;;;-138.23;85.32
13434;BME280;6789;47.678;9.158;2023-12-04T23:50:40;53515.94;;;-138.23;85.95
13434;BME280;6789;47.678;9.158;2023-12-04T23:55:46;53501.88;;;-138.23;85.61
